Time;durP1;ratioP1;P1;durP2;ratioP2;P2;SDS_P1;SDS_P2;PMS_P1;PMS_P2;Temp;Humidity;BMP_temperature;BMP_pressure;BME280_temperature;BME280_humidity;BME280_pressure;Samples;Min_cycle;Max_cycle;Signal;HPM_P1;HPM_P2
2021/12/01 00:01:12;;;;;;;1.43;1.03;;;6.90;1.00;7.70;99621.00;;;;4954795;28;20452;-77
2021/12/01 00:03:41;;;;;;;1.50;1.10;;;6.90;1.00;7.70;99611.00;;;;4972340;28;20514;-74
2021/12/01 00:06:11;;;;;;;1.87;0.93;;;6.90;1.00;7.80;99615.00;;;;4973711;28;20463;-75
2021/12/01 00:08:40;;;;;;;1.20;0.93;;;6.90;1.00;7.70;99591.00;;;;4975508;28;20459;-74
2021/12/01 00:11:08;;;;;;;1.97;1.07;;;6.90;1.00;7.70;99589.00;;;;4976430;28;20458;-74
2021/12/01 00:13:36;;;;;;;1.60;1.17;;;6.90;1.00;7.80;99602.00;;;;4967160;28;20456;-75
2021/12/01 00:16:08;;;;;;;1.20;0.90;;;6.90;1.00;7.80;99591.00;;;;4973525;28;20971;-75
2021/12/01 00:18:38;;;;;;;1.77;1.10;;;6.90;1.00;7.80;99601.00;;;;4969880;28;21116;-75
2021/12/01 00:21:06;;;;;;;1.37;0.93;;;6.90;1.00;7.70;99600.00;;;;4976239;28;20467;-74
2021/12/01 00:23:35;;;;;;;1.50;1.07;;;6.90;1.00;7.70;99589.00;;;;4997734;28;20440;-74
2021/12/01 00:26:05;;;;;;;1.73;1.20;;;6.90;1.00;7.60;99584.00;;;;4994109;28;20490;-75
2021/12/01 00:28:33;;;;;;;1.33;0.83;;;6.80;1.00;7.60;99579.00;;;;4958053;28;20463;-75
2021/12/01 00:31:02;;;;;;;2.37;1.00;;;6.80;1.00;7.20;99606.00;;;;4975634;28;20470;-75
2021/12/01 00:33:30;;;;;;;2.00;1.50;;;6.80;1.00;7.60;99562.00;;;;4975191;28;20459;-76
2021/12/01 00:36:00;;;;;;;2.17;1.40;;;6.80;1.00;7.60;99526.00;;;;4966170;28;20459;-74
2021/12/01 00:38:30;;;;;;;1.83;1.50;;;6.80;1.00;7.60;99573.00;;;;4972187;28;20831;-74
2021/12/01 00:41:02;;;;;;;1.90;1.63;;;6.80;1.00;7.60;99569.00;;;;4949864;28;20487;-74
2021/12/01 00:43:31;;;;;;;1.73;1.50;;;6.70;1.00;7.50;99581.00;;;;4979619;28;20478;-74
2021/12/01 00:46:10;;;;;;;1.83;1.40;;;6.70;1.00;7.50;99594.00;;;;4993192;28;20562;-74
2021/12/01 00:48:38;;;;;;;2.60;1.93;;;6.70;1.00;7.50;99602.00;;;;4985077;28;20459;-75
2021/12/01 00:51:08;;;;;;;2.20;1.77;;;6.70;1.00;7.40;99594.00;;;;4975917;28;20459;-75
2021/12/01 00:53:37;;;;;;;3.77;2.80;;;6.60;1.00;7.30;99588.00;;;;4951037;28;20445;-75
2021/12/01 00:56:07;;;;;;;3.20;2.90;;;6.50;1.00;7.30;99577.00;;;;4971641;28;21076;-77
2021/12/01 00:58:35;;;;;;;3.90;2.83;;;6.40;1.00;7.30;99575.00;;;;4967729;28;20458;-75
2021/12/01 01:01:04;;;;;;;3.03;2.73;;;6.40;1.00;7.20;99581.00;;;;4974542;28;20466;-75
2021/12/01 01:03:32;;;;;;;2.40;2.20;;;6.40;1.00;7.10;99557.00;;;;4973292;28;20865;-74
2021/12/01 01:06:01;;;;;;;2.67;2.47;;;6.40;1.00;7.10;99576.00;;;;4975651;28;20845;-75
2021/12/01 01:08:30;;;;;;;3.17;2.87;;;6.30;1.00;7.10;99574.00;;;;4971028;28;20470;-75
2021/12/01 01:16:22;;;;;;;3.10;2.80;;;6.30;1.00;7.10;99560.00;;;;4963517;28;20546;-75
2021/12/01 01:16:49;;;;;;;2.63;2.43;;;6.30;1.00;7.10;99561.00;;;;4995273;28;20551;-76
2021/12/01 01:19:20;;;;;;;2.67;2.30;;;6.30;1.00;7.10;99586.00;;;;4973203;28;20467;-75
2021/12/01 01:21:51;;;;;;;2.67;2.30;;;6.30;1.00;7.10;99556.00;;;;4979663;28;20964;-75
2021/12/01 01:24:21;;;;;;;4.00;2.63;;;6.30;1.00;7.10;99552.00;;;;4990561;28;20468;-75
2021/12/01 01:26:52;;;;;;;2.33;2.13;;;6.30;1.00;7.20;99540.00;;;;4999577;28;20567;-75
2021/12/01 01:29:22;;;;;;;2.67;2.23;;;6.30;1.00;7.10;99539.00;;;;4994197;28;20487;-75
2021/12/01 01:31:53;;;;;;;1.83;1.70;;;6.30;1.00;7.10;99540.00;;;;4996319;28;20467;-77
2021/12/01 01:34:22;;;;;;;3.20;2.40;;;6.30;1.00;7.10;99548.00;;;;4998993;28;20443;-74
2021/12/01 01:36:51;;;;;;;2.77;2.57;;;6.30;1.00;7.10;99526.00;;;;4981842;28;20566;-74
2021/12/01 01:39:23;;;;;;;3.03;2.40;;;6.40;1.00;7.20;99535.00;;;;4966061;28;20482;-75
2021/12/01 01:41:54;;;;;;;2.70;1.70;;;6.40;1.00;7.20;99551.00;;;;4976736;28;20456;-75
2021/12/01 01:44:22;;;;;;;2.20;2.00;;;6.40;1.00;7.20;99505.00;;;;4967698;28;20462;-75
2021/12/01 01:46:51;;;;;;;2.50;1.50;;;6.40;1.00;7.20;99528.00;;;;4971632;28;20479;-75
2021/12/01 01:49:20;;;;;;;2.00;1.80;;;6.40;1.00;7.20;99517.00;;;;4968714;28;20894;-75
2021/12/01 01:51:50;;;;;;;2.20;1.80;;;6.50;1.00;7.30;99532.00;;;;4969716;28;20460;-75
2021/12/01 01:54:20;;;;;;;1.60;1.50;;;6.50;1.00;7.20;99524.00;;;;4971451;28;20451;-75
2021/12/01 01:56:48;;;;;;;2.67;1.90;;;6.50;1.00;7.20;99511.00;;;;4970158;28;20490;-75
2021/12/01 01:59:16;;;;;;;1.60;1.40;;;6.50;1.00;7.10;99508.00;;;;4977976;28;20463;-75
2021/12/01 02:01:55;;;;;;;1.93;1.60;;;6.40;1.00;7.20;99427.00;;;;4973059;28;20469;-79
2021/12/01 02:04:25;;;;;;;1.43;1.27;;;6.50;1.00;7.20;99492.00;;;;4968339;28;20469;-74
2021/12/01 02:06:54;;;;;;;1.80;1.50;;;6.50;1.00;7.20;99480.00;;;;4967789;28;20497;-75
2021/12/01 02:09:25;;;;;;;2.30;1.20;;;6.50;1.00;7.20;99481.00;;;;4975147;28;20460;-75
2021/12/01 02:11:59;;;;;;;1.87;1.27;;;6.50;1.00;7.20;99479.00;;;;4956434;28;20451;-75
2021/12/01 02:14:29;;;;;;;2.90;1.43;;;6.40;1.00;7.20;99457.00;;;;4973367;28;20548;-75
2021/12/01 02:16:58;;;;;;;3.40;1.30;;;6.40;1.00;7.20;99466.00;;;;4972309;28;20483;-75
2021/12/01 02:19:28;;;;;;;1.20;0.90;;;6.40;1.00;7.20;99447.00;;;;4973581;28;20463;-74
2021/12/01 02:21:57;;;;;;;1.53;1.07;;;6.40;1.00;7.10;99420.00;;;;4971899;28;20550;-74
2021/12/01 02:24:27;;;;;;;1.30;0.90;;;6.40;1.00;7.20;99427.00;;;;4980881;28;21004;-74
2021/12/01 02:26:55;;;;;;;1.50;1.07;;;6.40;1.00;7.20;99393.00;;;;4971684;28;21011;-74
2021/12/01 02:29:27;;;;;;;1.67;0.90;;;6.40;1.00;7.10;99440.00;;;;4988550;28;20458;-74
2021/12/01 02:31:56;;;;;;;1.40;1.10;;;6.40;1.00;7.20;99421.00;;;;4981019;28;20455;-75
2021/12/01 02:34:26;;;;;;;1.47;1.00;;;6.40;1.00;7.20;99430.00;;;;4968374;28;20462;-74
2021/12/01 02:36:59;;;;;;;1.20;0.80;;;6.40;1.00;7.20;99435.00;;;;4973354;28;20471;-75
2021/12/01 02:39:28;;;;;;;2.10;0.83;;;6.40;1.00;7.20;99421.00;;;;4972890;28;20481;-75
2021/12/01 02:41:59;;;;;;;1.30;0.83;;;6.50;1.00;7.20;99429.00;;;;4973066;28;20448;-75
2021/12/01 02:44:29;;;;;;;1.80;0.80;;;6.50;1.00;7.20;99425.00;;;;4972931;28;20455;-74
2021/12/01 02:46:58;;;;;;;2.37;1.00;;;6.50;1.00;7.20;99392.00;;;;4972159;28;20488;-74
2021/12/01 02:49:26;;;;;;;1.10;0.80;;;6.50;1.00;7.20;99412.00;;;;4972884;28;20451;-74
2021/12/01 02:51:57;;;;;;;1.70;0.90;;;6.50;1.00;7.20;99389.00;;;;4972836;28;21039;-75
2021/12/01 02:54:29;;;;;;;1.97;0.80;;;6.50;1.00;7.30;99380.00;;;;4972966;28;20452;-74
2021/12/01 02:56:58;;;;;;;1.47;1.03;;;6.50;1.00;7.30;99383.00;;;;4971463;28;20471;-74
2021/12/01 02:59:27;;;;;;;1.50;1.00;;;6.50;1.00;7.40;99343.00;;;;4973037;28;20455;-75
2021/12/01 03:01:56;;;;;;;1.80;1.10;;;6.60;1.00;7.40;99357.00;;;;4973127;28;20452;-75
2021/12/01 03:04:26;;;;;;;2.47;1.47;;;6.60;1.00;7.30;99374.00;;;;4970420;28;20503;-74
2021/12/01 03:06:56;;;;;;;1.50;1.30;;;6.50;1.00;7.30;99368.00;;;;4968849;28;20490;-74
2021/12/01 03:09:26;;;;;;;1.37;1.20;;;6.60;1.00;7.30;99359.00;;;;4972090;28;20834;-74
2021/12/01 03:11:54;;;;;;;2.30;1.47;;;6.50;1.00;7.20;99362.00;;;;4965375;28;20459;-74
2021/12/01 03:14:23;;;;;;;1.20;1.10;;;6.50;1.00;7.20;99359.00;;;;4953819;28;20452;-74
2021/12/01 03:16:54;;;;;;;2.30;1.90;;;6.50;1.00;7.20;99356.00;;;;4974629;28;21130;-74
2021/12/01 03:19:22;;;;;;;4.13;1.93;;;6.50;1.00;7.20;99324.00;;;;4977417;28;20491;-74
2021/12/01 03:21:50;;;;;;;2.23;2.03;;;6.50;1.00;7.20;99348.00;;;;4959566;28;20849;-75
2021/12/01 03:24:20;;;;;;;3.07;2.10;;;6.40;1.00;7.20;99353.00;;;;4976673;28;20490;-74
2021/12/01 03:26:48;;;;;;;2.70;2.50;;;6.40;1.00;7.30;99350.00;;;;4974620;28;20490;-74
2021/12/01 03:29:17;;;;;;;2.47;2.27;;;6.40;1.00;7.30;99317.00;;;;4973042;28;20451;-74
2021/12/01 03:31:45;;;;;;;2.00;1.80;;;6.50;1.00;7.20;99335.00;;;;4974989;28;20498;-74
2021/12/01 03:34:14;;;;;;;3.67;2.67;;;6.40;1.00;7.30;99321.00;;;;4968567;28;20490;-74
2021/12/01 03:36:42;;;;;;;2.50;2.30;;;6.40;1.00;7.20;99321.00;;;;4976347;28;20917;-74
2021/12/01 03:39:10;;;;;;;3.50;3.07;;;6.40;1.00;7.10;99317.00;;;;4976296;28;20465;-74
2021/12/01 03:41:40;;;;;;;3.33;3.03;;;6.40;1.00;7.20;99321.00;;;;4976425;28;20440;-75
2021/12/01 03:44:09;;;;;;;3.20;2.73;;;6.40;1.00;7.20;99300.00;;;;4975474;28;20467;-73
2021/12/01 03:46:37;;;;;;;3.00;2.70;;;6.40;1.00;7.10;99312.00;;;;4972902;28;20532;-73
2021/12/01 03:49:05;;;;;;;3.73;3.43;;;6.40;1.00;7.10;99319.00;;;;4976287;28;20446;-73
2021/12/01 03:51:34;;;;;;;3.33;3.03;;;6.30;1.00;7.10;99299.00;;;;4976215;28;20451;-73
2021/12/01 03:54:03;;;;;;;3.37;3.07;;;6.30;1.00;7.20;99286.00;;;;4975303;28;20466;-73
2021/12/01 03:56:33;;;;;;;4.53;3.50;;;6.30;1.00;7.20;99256.00;;;;4970221;28;20629;-73
2021/12/01 03:59:06;;;;;;;3.27;2.97;;;6.30;1.00;7.30;99275.00;;;;4966736;28;20451;-73
2021/12/01 04:01:35;;;;;;;3.97;3.67;;;6.40;1.00;7.20;99263.00;;;;4975688;28;20558;-74
2021/12/01 04:04:04;;;;;;;3.33;2.93;;;6.40;1.00;7.20;99269.00;;;;4999267;28;20479;-74
2021/12/01 04:06:33;;;;;;;3.80;3.50;;;6.30;1.00;7.30;99249.00;;;;4999136;28;20474;-75
2021/12/01 04:09:03;;;;;;;3.47;3.10;;;6.40;1.00;7.20;99219.00;;;;4990851;28;20466;-73
2021/12/01 04:11:32;;;;;;;4.60;4.20;;;6.40;1.00;7.20;99231.00;;;;4992560;28;20539;-74
2021/12/01 04:14:01;;;;;;;4.13;3.73;;;6.30;1.00;7.20;99220.00;;;;4981798;28;20530;-73
2021/12/01 04:16:30;;;;;;;4.83;4.43;;;6.30;1.00;7.10;99209.00;;;;4981634;28;20490;-74
2021/12/01 04:18:58;;;;;;;3.67;3.37;;;6.30;1.00;7.10;99193.00;;;;4954808;28;20875;-74
2021/12/01 04:21:27;;;;;;;3.83;3.53;;;6.30;1.00;7.20;99191.00;;;;4974115;28;20944;-74
2021/12/01 04:23:56;;;;;;;4.33;3.67;;;6.30;1.00;7.10;99188.00;;;;4971251;28;20452;-74
2021/12/01 04:26:27;;;;;;;4.73;4.17;;;6.30;1.00;7.10;99197.00;;;;4950093;28;20547;-74
2021/12/01 04:28:56;;;;;;;3.90;3.50;;;6.30;1.00;7.20;99194.00;;;;4975575;28;20470;-76
2021/12/01 04:31:26;;;;;;;4.23;3.83;;;6.30;1.00;7.20;99196.00;;;;4969789;28;20459;-74
2021/12/01 04:33:55;;;;;;;4.93;3.73;;;6.30;1.00;7.20;99213.00;;;;4971327;28;20459;-74
2021/12/01 04:36:26;;;;;;;4.07;3.77;;;6.40;1.00;7.30;99208.00;;;;4993387;28;20510;-74
2021/12/01 04:38:54;;;;;;;4.10;3.80;;;6.40;1.00;7.30;99177.00;;;;4999047;28;20465;-74
2021/12/01 04:41:23;;;;;;;5.03;4.27;;;6.40;1.00;7.30;99173.00;;;;4998774;28;20475;-74
2021/12/01 04:43:53;;;;;;;7.40;3.73;;;6.50;1.00;7.30;99170.00;;;;4982009;28;20863;-74
2021/12/01 04:46:21;;;;;;;4.33;3.93;;;6.50;1.00;7.20;99169.00;;;;4955331;28;20504;-74
2021/12/01 04:48:51;;;;;;;2.83;2.60;;;6.50;1.00;7.30;99159.00;;;;4956733;29;20432;-74
2021/12/01 04:51:19;;;;;;;3.33;3.03;;;6.50;1.00;7.40;99157.00;;;;4956227;29;20436;-74
2021/12/01 04:53:48;;;;;;;3.93;3.53;;;6.50;1.00;7.40;99145.00;;;;4967892;28;20459;-73
2021/12/01 04:56:18;;;;;;;6.20;3.20;;;6.60;1.00;7.40;99144.00;;;;4957414;28;21112;-74
2021/12/01 04:58:48;;;;;;;3.93;3.53;;;6.60;1.00;7.50;99135.00;;;;4975270;28;20455;-75
2021/12/01 05:01:17;;;;;;;3.53;3.23;;;6.60;1.00;7.50;99138.00;;;;4975391;28;20455;-74
2021/12/01 05:03:45;;;;;;;4.40;3.27;;;6.60;1.00;7.50;99134.00;;;;4974914;28;20466;-74
2021/12/01 05:06:16;;;;;;;3.60;3.20;;;6.60;1.00;7.60;99142.00;;;;4976814;28;20448;-74
2021/12/01 05:08:55;;;;;;;3.60;3.30;;;6.70;1.00;7.50;99135.00;;;;4991525;28;20491;-74
2021/12/01 05:11:24;;;;;;;5.50;3.77;;;6.70;1.00;7.50;99143.00;;;;4940636;29;20540;-78
2021/12/01 05:14:10;;;;;;;3.83;3.53;;;6.70;1.00;7.50;99125.00;;;;4946993;29;20497;-80
2021/12/01 05:16:40;;;;;;;3.80;3.47;;;6.70;1.00;7.50;99126.00;;;;4953347;29;20474;-78
2021/12/01 05:19:10;;;;;;;4.07;3.67;;;6.70;1.00;7.60;99145.00;;;;4953792;29;20884;-78
2021/12/01 05:21:41;;;;;;;4.77;4.37;;;6.70;1.00;7.70;99112.00;;;;4934265;29;20453;-79
2021/12/01 05:24:10;;;;;;;4.00;3.60;;;6.80;1.00;7.70;99049.00;;;;4934627;29;20442;-79
2021/12/01 05:26:39;;;;;;;4.10;3.70;;;6.80;1.00;7.70;99146.00;;;;4951615;29;20476;-79
2021/12/01 05:29:08;;;;;;;5.33;3.90;;;6.80;1.00;7.70;99131.00;;;;4932575;29;20509;-79
2021/12/01 05:31:36;;;;;;;4.30;3.90;;;6.80;1.00;7.60;99134.00;;;;4947711;29;20862;-80
2021/12/01 05:34:05;;;;;;;3.73;3.43;;;6.70;1.00;7.60;99003.00;;;;4930181;29;20461;-79
2021/12/01 05:36:33;;;;;;;3.90;3.50;;;6.70;1.00;7.50;99106.00;;;;4931581;29;20521;-79
2021/12/01 05:39:04;;;;;;;4.57;4.17;;;6.60;1.00;7.50;99131.00;;;;4929976;29;20547;-80
2021/12/01 05:41:32;;;;;;;3.47;3.17;;;6.60;1.00;7.60;99120.00;;;;4959539;29;20410;-80
2021/12/01 05:44:01;;;;;;;4.13;3.73;;;6.60;1.00;7.60;99125.00;;;;4951174;28;20457;-79
2021/12/01 05:46:34;;;;;;;3.33;3.03;;;6.70;1.00;7.60;99102.00;;;;4938198;29;20445;-79
2021/12/01 05:49:03;;;;;;;6.30;3.27;;;6.70;1.00;7.60;99102.00;;;;4938419;29;20481;-79
2021/12/01 05:51:31;;;;;;;3.37;2.83;;;6.80;1.00;7.60;99115.00;;;;4920136;29;20446;-79
2021/12/01 05:54:00;;;;;;;2.77;2.57;;;6.80;1.00;7.60;99077.00;;;;4901371;29;20466;-79
2021/12/01 05:56:31;;;;;;;3.90;3.50;;;6.80;1.00;7.60;99074.00;;;;4918150;29;20450;-79
2021/12/01 05:58:59;;;;;;;2.93;2.63;;;6.70;1.00;7.60;99081.00;;;;4903799;29;20920;-79
2021/12/01 06:01:28;;;;;;;2.97;2.23;;;6.70;1.00;7.60;99092.00;;;;4925849;29;20458;-79
2021/12/01 06:03:56;;;;;;;2.90;2.60;;;6.70;1.00;7.60;99078.00;;;;4921717;29;20441;-78
2021/12/01 06:06:25;;;;;;;3.83;3.13;;;6.70;1.00;7.60;99066.00;;;;4920364;29;20468;-79
2021/12/01 06:08:53;;;;;;;3.00;2.70;;;6.80;1.00;7.60;99033.00;;;;4920409;29;20483;-79
2021/12/01 06:11:22;;;;;;;4.07;3.67;;;6.70;1.00;7.60;99010.00;;;;4941687;29;20505;-79
2021/12/01 06:13:53;;;;;;;3.00;2.80;;;6.70;1.00;7.60;99047.00;;;;4937448;29;20461;-79
2021/12/01 06:16:22;;;;;;;3.80;3.10;;;6.70;1.00;7.70;99082.00;;;;4943315;29;20485;-79
2021/12/01 06:18:51;;;;;;;4.27;2.93;;;6.80;1.00;7.60;99060.00;;;;4944171;29;20553;-79
2021/12/01 06:21:20;;;;;;;7.70;3.60;;;6.80;1.00;7.70;99060.00;;;;4935876;29;20462;-79
2021/12/01 06:23:48;;;;;;;4.50;3.00;;;6.80;1.00;7.70;99023.00;;;;4926027;29;20460;-79
2021/12/01 06:26:17;;;;;;;3.77;3.20;;;6.80;1.00;7.70;99015.00;;;;4943923;29;20798;-79
2021/12/01 06:28:45;;;;;;;4.20;3.20;;;6.90;1.00;7.80;99006.00;;;;4929882;29;20516;-78
2021/12/01 06:31:15;;;;;;;2.93;2.63;;;6.90;1.00;7.80;99013.00;;;;4929867;29;20537;-79
2021/12/01 06:33:44;;;;;;;3.60;3.30;;;6.90;1.00;7.80;99012.00;;;;4939502;29;20451;-80
2021/12/01 06:36:12;;;;;;;3.47;3.17;;;6.90;1.00;7.80;99004.00;;;;4952354;28;20457;-79
2021/12/01 06:39:08;;;;;;;4.70;3.03;;;7.00;1.00;7.90;98979.00;;;;4937447;29;20438;-79
2021/12/01 06:41:36;;;;;;;3.80;2.80;;;7.00;1.00;7.90;98994.00;;;;4942907;29;20484;-79
2021/12/01 06:44:06;;;;;;;3.27;2.97;;;7.00;1.00;7.90;98954.00;;;;4957307;29;20515;-80
2021/12/01 06:46:35;;;;;;;3.10;2.80;;;7.00;1.00;7.90;98931.00;;;;4952867;28;20524;-79
2021/12/01 06:49:04;;;;;;;3.73;3.17;;;7.10;1.00;7.80;98993.00;;;;4951997;29;20472;-79
2021/12/01 06:51:32;;;;;;;3.53;3.23;;;7.10;1.00;8.00;98919.00;;;;4944784;29;20457;-80
2021/12/01 06:54:01;;;;;;;4.57;3.07;;;7.00;1.00;8.00;98966.00;;;;4969720;29;20460;-80
2021/12/01 06:56:29;;;;;;;3.03;2.77;;;7.10;1.00;8.00;98970.00;;;;4950634;29;20505;-79
2021/12/01 06:58:57;;;;;;;4.03;3.20;;;7.20;1.00;8.00;98964.00;;;;4941347;29;20435;-79
2021/12/01 07:01:26;;;;;;;3.83;3.07;;;7.10;1.00;8.00;98905.00;;;;4942714;29;20475;-79
2021/12/01 07:03:56;;;;;;;3.20;2.90;;;7.10;1.00;8.00;98915.00;;;;4942231;29;20450;-79
2021/12/01 07:06:24;;;;;;;2.93;2.73;;;7.10;1.00;8.00;98926.00;;;;4926248;29;20442;-78
2021/12/01 07:08:54;;;;;;;4.60;3.30;;;7.20;1.00;8.00;98915.00;;;;4939100;29;20481;-79
2021/12/01 07:11:23;;;;;;;3.63;2.93;;;7.20;1.00;8.00;98926.00;;;;4927250;29;20460;-79
2021/12/01 07:13:51;;;;;;;4.33;3.00;;;7.20;1.00;8.00;98911.00;;;;4924041;29;20946;-79
2021/12/01 07:16:20;;;;;;;3.40;3.00;;;7.20;1.00;8.10;98907.00;;;;4937491;29;20529;-79
2021/12/01 07:18:48;;;;;;;3.67;2.80;;;7.20;1.00;8.00;98902.00;;;;4933768;29;20458;-79
2021/12/01 07:21:18;;;;;;;5.33;3.57;;;7.20;1.00;8.10;98900.00;;;;4948982;29;20504;-79
2021/12/01 07:23:47;;;;;;;3.33;2.63;;;7.30;1.00;8.10;98860.00;;;;4940844;29;20536;-80
2021/12/01 07:26:16;;;;;;;2.27;2.07;;;7.20;1.00;8.10;98864.00;;;;4925338;29;20527;-80
2021/12/01 07:28:44;;;;;;;2.30;2.10;;;7.30;1.00;8.10;98897.00;;;;4909623;29;20478;-79
2021/12/01 07:31:13;;;;;;;3.87;2.43;;;7.30;1.00;8.10;98891.00;;;;4940241;29;20496;-80
2021/12/01 07:33:41;;;;;;;2.87;2.37;;;7.30;1.00;8.10;98886.00;;;;4958355;29;20452;-79
2021/12/01 07:36:10;;;;;;;3.77;2.27;;;7.40;1.00;8.20;98868.00;;;;4947797;29;20487;-80
2021/12/01 07:38:39;;;;;;;3.90;2.27;;;7.30;1.00;8.20;98865.00;;;;4931456;29;20450;-79
2021/12/01 07:41:08;;;;;;;2.97;2.00;;;7.40;1.00;8.20;98845.00;;;;4934277;29;20558;-80
2021/12/01 07:43:36;;;;;;;4.13;2.13;;;7.40;1.00;8.30;98844.00;;;;4944558;29;20451;-79
2021/12/01 07:46:04;;;;;;;4.30;2.87;;;7.40;1.00;8.30;98882.00;;;;4944429;29;20454;-79
2021/12/01 07:48:33;;;;;;;3.40;2.00;;;7.40;1.00;8.30;98876.00;;;;4922650;29;20561;-79
2021/12/01 07:51:01;;;;;;;2.57;1.93;;;7.50;1.00;8.40;98836.00;;;;4940762;29;20480;-78
2021/12/01 07:53:30;;;;;;;3.80;2.10;;;7.50;1.00;8.40;98884.00;;;;4930519;29;20516;-79
2021/12/01 07:56:02;;;;;;;2.00;1.50;;;7.60;1.00;8.40;98853.00;;;;4947081;29;20481;-79
2021/12/01 07:58:30;;;;;;;2.07;1.87;;;7.60;1.00;8.50;98880.00;;;;4963266;29;20461;-80
2021/12/01 08:00:59;;;;;;;2.30;1.83;;;7.60;1.00;8.40;98844.00;;;;4961277;29;20548;-81
2021/12/01 08:03:28;;;;;;;2.83;1.70;;;7.70;1.00;8.40;98864.00;;;;4958851;28;20479;-81
2021/12/01 08:05:56;;;;;;;2.47;1.87;;;7.70;1.00;8.40;98833.00;;;;4968606;29;20468;-80
2021/12/01 08:08:25;;;;;;;2.67;1.37;;;7.60;1.00;8.40;98864.00;;;;4946052;29;20480;-80
2021/12/01 08:10:53;;;;;;;4.40;1.50;;;7.50;1.00;8.40;98831.00;;;;4925430;29;20513;-80
2021/12/01 08:13:23;;;;;;;2.10;1.90;;;7.60;1.00;8.40;98822.00;;;;4948974;29;20464;-79
2021/12/01 08:15:52;;;;;;;2.23;1.77;;;7.60;1.00;8.40;98825.00;;;;4942176;29;20453;-78
2021/12/01 08:18:20;;;;;;;3.53;1.57;;;7.60;1.00;8.40;98827.00;;;;4944846;29;20485;-80
2021/12/01 08:20:49;;;;;;;2.43;1.40;;;7.60;1.00;8.40;98798.00;;;;4943227;29;20479;-79
2021/12/01 08:23:17;;;;;;;1.60;1.50;;;7.60;1.00;8.40;98767.00;;;;4934653;29;20460;-79
2021/12/01 08:25:47;;;;;;;1.67;1.40;;;7.60;1.00;8.40;98730.00;;;;4941509;29;20472;-82
2021/12/01 08:28:15;;;;;;;2.40;1.50;;;7.50;1.00;8.30;98784.00;;;;4949577;29;20535;-80
2021/12/01 08:30:45;;;;;;;2.87;1.80;;;7.50;1.00;8.40;98777.00;;;;4929894;29;20549;-80
2021/12/01 08:33:14;;;;;;;2.63;1.80;;;7.50;1.00;8.40;98783.00;;;;4953276;28;20574;-82
2021/12/01 08:35:43;;;;;;;2.40;1.60;;;7.50;1.00;8.40;98796.00;;;;4937650;29;20446;-80
2021/12/01 08:38:11;;;;;;;4.30;2.40;;;7.50;1.00;8.40;98754.00;;;;4942757;29;20453;-81
2021/12/01 08:40:40;;;;;;;2.53;1.60;;;7.50;1.00;8.50;98772.00;;;;4940069;29;20503;-80
2021/12/01 08:43:09;;;;;;;4.33;1.60;;;7.60;1.00;8.50;98773.00;;;;4920495;29;20446;-80
2021/12/01 08:45:37;;;;;;;5.10;4.20;;;7.60;1.00;8.50;98759.00;;;;4936249;29;20550;-80
2021/12/01 08:48:07;;;;;;;3.23;1.60;;;7.60;1.00;8.40;98747.00;;;;4930205;29;20453;-80
2021/12/01 08:50:36;;;;;;;2.20;1.30;;;7.60;1.00;8.40;98753.00;;;;4932111;29;20926;-81
2021/12/01 08:53:04;;;;;;;2.30;1.40;;;7.60;1.00;8.40;98741.00;;;;4974111;29;20779;-79
2021/12/01 08:55:33;;;;;;;2.07;1.53;;;7.50;1.00;8.40;98760.00;;;;4928857;29;20449;-79
2021/12/01 08:58:09;;;;;;;2.40;1.40;;;7.50;1.00;8.40;98681.00;;;;4940627;29;20441;-80
2021/12/01 09:00:43;;;;;;;1.73;1.27;;;7.50;1.00;8.40;98738.00;;;;4917250;29;20475;-80
2021/12/01 09:03:15;;;;;;;2.10;1.50;;;7.50;1.00;8.40;98723.00;;;;4945522;29;20446;-80
2021/12/01 09:05:46;;;;;;;2.10;1.60;;;7.50;1.00;8.30;98719.00;;;;4944488;29;20522;-80
2021/12/01 09:08:16;;;;;;;1.70;1.43;;;7.50;1.00;8.40;98687.00;;;;4950094;29;20521;-81
2021/12/01 09:10:45;;;;;;;1.80;1.23;;;7.50;1.00;8.30;98712.00;;;;4942049;29;20492;-79
2021/12/01 09:13:14;;;;;;;2.40;1.80;;;7.50;1.00;8.30;98741.00;;;;4939360;29;20658;-79
2021/12/01 09:15:43;;;;;;;2.10;1.47;;;7.50;1.00;8.40;98689.00;;;;4929453;29;20454;-81
2021/12/01 09:18:13;;;;;;;2.23;1.77;;;7.50;1.00;8.40;98721.00;;;;4929821;29;20452;-79
2021/12/01 09:20:42;;;;;;;2.07;1.40;;;7.60;1.00;8.40;98709.00;;;;4947397;29;20534;-81
2021/12/01 09:23:10;;;;;;;2.70;1.50;;;7.60;1.00;8.40;98704.00;;;;4940787;29;20572;-80
2021/12/01 09:25:39;;;;;;;2.23;1.73;;;7.50;1.00;8.30;98668.00;;;;4949204;29;20942;-80
2021/12/01 09:28:18;;;;;;;2.20;1.60;;;7.50;1.00;8.40;98687.00;;;;4926209;29;20449;-79
2021/12/01 09:30:47;;;;;;;1.63;1.30;;;7.50;1.00;8.40;98683.00;;;;4924717;29;20544;-81
2021/12/01 09:33:18;;;;;;;3.93;1.70;;;7.50;1.00;8.40;98694.00;;;;4933690;29;20474;-80
2021/12/01 09:35:47;;;;;;;3.37;1.43;;;7.50;1.00;8.50;98656.00;;;;4930922;29;20465;-79
2021/12/01 09:38:17;;;;;;;1.77;1.30;;;7.60;1.00;8.50;98695.00;;;;4941352;29;20465;-82
2021/12/01 09:40:49;;;;;;;3.90;1.10;;;7.60;1.00;8.50;98688.00;;;;4942649;29;20911;-80
2021/12/01 09:43:21;;;;;;;1.93;1.30;;;7.60;1.00;8.50;98668.00;;;;4929158;29;20457;-80
2021/12/01 09:45:50;;;;;;;3.37;1.67;;;7.70;1.00;8.60;98638.00;;;;4945732;29;20457;-81
2021/12/01 09:48:21;;;;;;;2.43;1.40;;;7.70;1.00;8.70;98635.00;;;;4951153;29;20450;-81
2021/12/01 09:51:11;;;;;;;1.20;1.00;;;7.80;1.00;8.70;98654.00;;;;4957208;29;20481;-81
2021/12/01 09:53:39;;;;;;;2.07;1.30;;;7.90;1.00;8.70;98619.00;;;;4930031;29;20478;-81
2021/12/01 09:56:08;;;;;;;3.00;1.40;;;7.90;1.00;8.80;98654.00;;;;4944402;29;20556;-80
2021/12/01 09:58:37;;;;;;;1.67;1.07;;;7.90;1.00;8.80;98651.00;;;;4939635;29;20545;-79
2021/12/01 10:01:09;;;;;;;2.00;1.10;;;8.00;1.00;8.80;98651.00;;;;4939334;29;20547;-80
2021/12/01 10:03:44;;;;;;;1.87;1.00;;;8.00;1.00;8.80;98639.00;;;;4927967;29;20508;-80
2021/12/01 10:06:14;;;;;;;2.47;1.10;;;8.10;1.00;8.80;98636.00;;;;4930991;29;20449;-81
2021/12/01 10:08:46;;;;;;;1.90;1.37;;;8.00;1.00;8.80;98598.00;;;;4942979;29;20466;-81
2021/12/01 10:11:17;;;;;;;1.30;0.90;;;8.00;1.00;8.80;98621.00;;;;4931541;29;20473;-81
2021/12/01 10:13:49;;;;;;;2.50;1.30;;;8.00;1.00;8.80;98598.00;;;;4950597;29;20485;-80
2021/12/01 10:16:20;;;;;;;1.50;1.10;;;8.00;1.00;8.80;98630.00;;;;4939349;29;20524;-79
2021/12/01 10:18:55;;;;;;;3.07;1.23;;;8.20;1.00;8.80;98631.00;;;;4928807;29;20457;-79
2021/12/01 10:21:25;;;;;;;2.50;1.07;;;8.00;1.00;8.80;98592.00;;;;4936039;29;20457;-80
2021/12/01 10:23:57;;;;;;;1.83;1.00;;;8.00;1.00;8.90;98597.00;;;;4929927;29;20484;-80
2021/12/01 10:26:28;;;;;;;1.23;0.80;;;8.10;1.00;9.00;98593.00;;;;4943653;29;20541;-80
2021/12/01 10:29:01;;;;;;;1.87;1.03;;;8.10;1.00;9.00;98588.00;;;;4939230;29;20503;-80
2021/12/01 10:31:39;;;;;;;1.60;1.10;;;8.20;1.00;9.00;98566.00;;;;4930535;29;20465;-81
2021/12/01 10:34:31;;;;;;;1.67;1.13;;;8.20;1.00;8.90;98566.00;;;;4920403;29;20505;-79
2021/12/01 10:37:14;;;;;;;1.97;1.17;;;8.20;1.00;8.90;98551.00;;;;4914496;29;20465;-79
2021/12/01 10:39:44;;;;;;;1.90;0.97;;;8.20;1.00;8.90;98553.00;;;;4928439;29;20572;-80
2021/12/01 10:42:16;;;;;;;2.07;1.00;;;8.20;1.00;9.00;98549.00;;;;4922108;29;20517;-80
2021/12/01 10:45:00;;;;;;;1.60;1.30;;;8.20;1.00;9.00;98577.00;;;;4934677;29;20461;-80
2021/12/01 10:47:41;;;;;;;2.23;1.40;;;8.20;1.00;9.00;98556.00;;;;4924497;29;20516;-80
2021/12/01 10:50:14;;;;;;;1.40;1.00;;;8.20;1.00;9.00;98563.00;;;;4934702;29;20474;-81
2021/12/01 10:52:47;;;;;;;1.30;1.10;;;8.20;1.00;9.00;98550.00;;;;4938314;29;20525;-81
2021/12/01 10:55:18;;;;;;;2.90;1.40;;;8.20;1.00;8.90;98522.00;;;;4925057;29;20450;-82
2021/12/01 10:57:54;;;;;;;2.00;1.30;;;8.10;1.00;8.80;98555.00;;;;4919637;29;20480;-80
2021/12/01 11:00:26;;;;;;;2.23;1.23;;;8.10;1.00;8.90;98520.00;;;;4912711;29;20995;-80
2021/12/01 11:03:05;;;;;;;1.97;1.30;;;8.20;1.00;9.00;98528.00;;;;4924390;29;20466;-81
2021/12/01 11:05:39;;;;;;;1.50;0.90;;;8.20;1.00;9.00;98522.00;;;;4939075;29;20441;-80
2021/12/01 11:08:15;;;;;;;2.27;0.93;;;8.20;1.00;9.00;98519.00;;;;4933012;29;20445;-80
2021/12/01 11:10:46;;;;;;;2.00;1.20;;;8.20;1.00;9.10;98458.00;;;;4946248;29;20521;-81
2021/12/01 11:13:15;;;;;;;1.80;1.30;;;8.30;1.00;9.20;98506.00;;;;4913768;29;20454;-80
2021/12/01 11:15:47;;;;;;;2.20;1.20;;;8.30;1.00;9.20;98487.00;;;;4974630;23;20498;-79
2021/12/01 11:18:39;;;;;;;2.20;1.30;;;8.30;1.00;9.10;98498.00;;;;4996964;28;20442;-79
2021/12/01 11:21:12;;;;;;;2.60;1.40;;;8.40;1.00;9.20;98470.00;;;;4997350;28;20898;-79
2021/12/01 11:23:42;;;;;;;1.70;1.10;;;8.40;1.00;9.30;98464.00;;;;4999840;28;20430;-78
2021/12/01 11:26:14;;;;;;;1.70;1.27;;;8.40;1.00;9.30;98484.00;;;;4981110;28;20523;-78
2021/12/01 11:28:47;;;;;;;1.93;1.10;;;8.40;1.00;9.40;98469.00;;;;4980568;28;20552;-79
2021/12/01 11:31:19;;;;;;;3.57;1.40;;;8.50;1.00;9.40;98456.00;;;;4967865;29;20558;-79
2021/12/01 11:33:48;;;;;;;1.57;0.97;;;8.50;1.00;9.40;98459.00;;;;4965340;28;20470;-79